Time;durP1;ratioP1;P1;durP2;ratioP2;P2;SDS_P1;SDS_P2;PMS_P1;PMS_P2;Temp;Humidity;BMP_temperature;BMP_pressure;BME280_temperature;BME280_humidity;BME280_pressure;Samples;Min_cycle;Max_cycle;Signal;HPM_P1;HPM_P2
2022/08/22 00:01:34;;;;;;;11.38;3.92;;;;;;;19.28;65.86;101467.53;5112999;28;20016;-56
2022/08/22 00:04:31;;;;;;;6.72;3.38;;;;;;;19.28;66.18;101467.53;5113849;28;20034;-56
2022/08/22 00:07:38;;;;;;;7.85;3.90;;;;;;;19.29;65.61;101471.94;5113931;28;20019;-56
2022/08/22 00:10:22;;;;;;;7.93;3.83;;;;;;;19.25;66.61;101467.81;5034329;28;20436;-56
2022/08/22 00:13:02;;;;;;;7.28;3.15;;;;;;;19.20;66.94;101468.22;5108417;28;20065;-56
2022/08/22 00:15:35;;;;;;;7.10;3.50;;;;;;;19.19;67.24;101473.75;5113673;28;20098;-56
2022/08/22 00:18:17;;;;;;;6.97;3.38;;;;;;;19.18;67.42;101470.22;5113551;28;20023;-56
2022/08/22 00:20:48;;;;;;;11.40;3.67;;;;;;;19.12;67.67;101475.28;5112877;28;20024;-56
2022/08/22 00:23:51;;;;;;;7.22;3.55;;;;;;;19.11;67.40;101470.91;5113705;28;20023;-56
2022/08/22 00:26:32;;;;;;;5.03;3.13;;;;;;;19.06;67.98;101465.94;5113170;28;20501;-57
2022/08/22 00:29:09;;;;;;;7.28;3.53;;;;;;;19.00;68.29;101459.25;5113033;28;20037;-56
2022/08/22 00:32:00;;;;;;;8.70;3.85;;;;;;;19.06;67.74;101466.78;5113432;28;20026;-56
2022/08/22 00:34:36;;;;;;;7.35;3.55;;;;;;;19.05;68.08;101467.75;5113047;28;20035;-56
2022/08/22 00:37:20;;;;;;;5.40;3.45;;;;;;;19.05;67.94;101467.75;5112977;28;20115;-56
2022/08/22 00:39:52;;;;;;;9.35;4.00;;;;;;;18.97;68.49;101469.41;5113082;28;20015;-56
2022/08/22 00:42:20;;;;;;;8.70;3.58;;;;;;;19.01;68.67;101457.38;5113133;28;20038;-56
2022/08/22 00:45:04;;;;;;;5.60;3.60;;;;;;;19.01;68.66;101462.78;5112807;27;20085;-56
2022/08/22 00:47:43;;;;;;;7.93;3.85;;;;;;;18.97;68.81;101466.72;5113156;28;20534;-56
2022/08/22 00:50:21;;;;;;;6.00;3.78;;;;;;;18.98;68.76;101471.16;5113326;27;20029;-56
2022/08/22 00:53:11;;;;;;;8.25;3.67;;;;;;;19.00;68.54;101471.84;5112045;28;20059;-56
2022/08/22 00:56:01;;;;;;;5.88;4.10;;;;;;;18.96;68.72;101471.25;5112614;28;20028;-56
2022/08/22 00:58:41;;;;;;;10.95;4.70;;;;;;;18.85;69.08;101468.66;5112516;28;20032;-56
2022/08/22 01:01:11;;;;;;;10.15;4.90;;;;;;;18.91;69.11;101472.66;5112860;28;20390;-56
2022/08/22 01:03:49;;;;;;;8.65;5.00;;;;;;;18.91;69.16;101470.81;5112710;28;20019;-56
2022/08/22 01:06:40;;;;;;;11.18;5.28;;;;;;;18.88;68.97;101471.09;5113005;28;20458;-56
2022/08/22 01:09:12;;;;;;;8.50;4.63;;;;;;;18.86;69.26;101469.53;5112338;28;20059;-56
2022/08/22 01:11:40;;;;;;;10.93;4.55;;;;;;;18.76;69.64;101467.63;5111338;28;20217;-56
2022/08/22 01:14:21;;;;;;;8.82;4.88;;;;;;;18.82;69.20;101464.41;5112194;28;20027;-56
2022/08/22 01:17:06;;;;;;;11.18;5.05;;;;;;;18.73;69.83;101467.91;5112704;28;20389;-56
2022/08/22 01:19:56;;;;;;;10.07;4.50;;;;;;;18.75;69.38;101468.63;5112687;28;20477;-56
2022/08/22 01:22:36;;;;;;;12.93;5.40;;;;;;;18.58;69.52;101459.28;5112378;28;20032;-56
2022/08/22 01:25:29;;;;;;;13.93;5.90;;;;;;;18.56;69.73;101460.41;5112174;28;20024;-56
2022/08/22 01:28:26;;;;;;;12.45;6.68;;;;;;;18.51;69.38;101462.66;5111988;28;20032;-56
2022/08/22 01:31:03;;;;;;;12.77;6.85;;;;;;;18.56;69.14;101465.78;5112454;28;20019;-56
2022/08/22 01:33:43;;;;;;;11.98;7.50;;;;;;;18.50;69.13;101460.94;5112273;28;20444;-56
2022/08/22 01:36:29;;;;;;;12.32;7.57;;;;;;;18.52;68.72;101457.13;5112431;28;20020;-56
2022/08/22 01:39:15;;;;;;;13.35;7.80;;;;;;;18.60;68.53;101469.94;5110852;28;20034;-56
2022/08/22 01:42:11;;;;;;;13.75;7.50;;;;;;;18.58;68.26;101464.66;5111094;28;20050;-56
2022/08/22 01:45:03;;;;;;;13.02;7.30;;;;;;;18.60;68.36;101465.41;5110868;28;20085;-56
2022/08/22 01:47:46;;;;;;;13.68;7.75;;;;;;;18.48;68.71;101457.53;5104933;28;20050;-56
2022/08/22 01:50:33;;;;;;;16.48;8.35;;;;;;;18.49;68.75;101457.41;5111052;28;20047;-56
2022/08/22 01:53:10;;;;;;;12.82;8.30;;;;;;;18.49;69.07;101462.78;5110596;28;20521;-56
2022/08/22 01:56:15;;;;;;;14.50;7.78;;;;;;;18.56;68.40;101457.69;5112181;28;20254;-56
2022/08/22 01:58:56;;;;;;;12.43;7.97;;;;;;;18.55;68.34;101453.31;5095687;28;20044;-56
2022/08/22 02:01:39;;;;;;;17.52;8.55;;;;;;;18.59;68.19;101463.72;5112096;28;20103;-56
2022/08/22 02:04:20;;;;;;;11.60;7.97;;;;;;;18.54;68.45;101455.16;5111974;28;20027;-56
2022/08/22 02:07:12;;;;;;;12.35;7.13;;;;;;;18.48;68.90;101450.31;5111970;28;20034;-56
2022/08/22 02:09:44;;;;;;;14.10;7.88;;;;;;;18.56;68.64;101455.88;5110588;28;20035;-56
2022/08/22 02:12:10;;;;;;;12.40;8.05;;;;;;;18.57;68.76;101454.03;5111950;28;20493;-56
2022/08/22 02:14:59;;;;;;;12.85;7.50;;;;;;;18.59;68.73;101461.00;5111363;28;20027;-56
2022/08/22 02:17:32;;;;;;;11.40;7.20;;;;;;;18.59;69.15;101457.47;5111891;28;20106;-56
2022/08/22 02:20:17;;;;;;;12.55;8.20;;;;;;;18.53;69.37;101449.88;5111922;28;20157;-56
2022/08/22 02:23:20;;;;;;;15.45;7.15;;;;;;;18.58;69.00;101453.91;5111707;28;20030;-56
2022/08/22 02:26:02;;;;;;;13.40;7.38;;;;;;;18.45;69.90;101453.28;5088224;28;20028;-56
2022/08/22 02:28:56;;;;;;;10.70;7.75;;;;;;;18.57;69.32;101452.19;5109909;28;20118;-56
2022/08/22 02:31:24;;;;;;;16.05;7.53;;;;;;;18.40;70.22;101450.13;5111741;28;20020;-56
2022/08/22 02:33:57;;;;;;;13.63;8.30;;;;;;;18.45;69.96;101452.41;5111817;28;20035;-56
2022/08/22 02:36:31;;;;;;;17.05;8.07;;;;;;;18.51;69.38;101439.25;5110258;28;20027;-56
2022/08/22 02:39:12;;;;;;;12.95;7.85;;;;;;;18.49;69.35;101437.69;5111778;28;20019;-56
2022/08/22 02:42:02;;;;;;;13.95;8.43;;;;;;;18.53;69.22;101444.50;5111545;28;20061;-56
2022/08/22 02:44:38;;;;;;;11.20;7.88;;;;;;;18.48;68.99;101447.63;5109310;28;20035;-56
2022/08/22 02:47:26;;;;;;;13.23;8.27;;;;;;;18.51;68.81;101443.81;5111623;28;20439;-56
2022/08/22 02:50:09;;;;;;;11.68;8.38;;;;;;;18.50;68.99;101442.06;5111511;28;20027;-56
2022/08/22 02:52:59;;;;;;;12.30;8.18;;;;;;;18.50;69.09;101447.47;5111832;28;20027;-56
2022/08/22 02:55:37;;;;;;;13.95;8.07;;;;;;;18.50;69.09;101455.53;5144631;27;20427;-56
2022/08/22 02:58:17;;;;;;;14.52;8.75;;;;;;;18.50;69.17;101444.78;5109775;28;20052;-56
2022/08/22 03:00:46;;;;;;;11.57;8.35;;;;;;;18.46;69.66;101444.19;5115278;28;20020;-56
2022/08/22 03:03:18;;;;;;;15.00;8.27;;;;;;;18.45;69.60;101442.50;5115309;27;20065;-56
2022/08/22 03:05:43;;;;;;;14.40;7.70;;;;;;;18.36;69.80;101438.75;5115050;28;20039;-56
2022/08/22 03:08:29;;;;;;;12.00;7.68;;;;;;;18.42;69.22;101445.47;5115039;28;20073;-56
2022/08/22 03:10:59;;;;;;;12.77;8.35;;;;;;;18.34;69.50;101450.66;5113808;28;20024;-56
2022/08/22 03:13:42;;;;;;;12.30;8.68;;;;;;;18.33;69.64;101451.66;5114432;28;20023;-56
2022/08/22 03:16:27;;;;;;;13.25;7.85;;;;;;;18.28;69.71;101446.63;5115004;28;20088;-56
2022/08/22 03:19:07;;;;;;;13.45;7.90;;;;;;;18.25;69.91;101440.66;5113310;28;20031;-56
2022/08/22 03:21:59;;;;;;;12.15;7.95;;;;;;;18.21;70.14;101432.00;5114683;28;20012;-56
2022/08/22 03:24:38;;;;;;;17.98;8.73;;;;;;;18.14;70.26;101428.97;5114635;28;20367;-56
2022/08/22 03:27:16;;;;;;;16.10;8.20;;;;;;;17.98;70.81;101420.50;5114782;28;20023;-56
2022/08/22 03:29:58;;;;;;;15.32;8.07;;;;;;;18.05;70.54;101421.69;5114192;28;20027;-56
2022/08/22 03:32:53;;;;;;;14.48;8.48;;;;;;;18.02;70.29;101424.63;5114720;27;20043;-56
2022/08/22 03:35:29;;;;;;;18.98;8.05;;;;;;;17.92;71.15;101429.13;5114446;28;20055;-56
2022/08/22 03:38:10;;;;;;;12.75;8.13;;;;;;;17.84;70.95;101420.84;5114508;28;20058;-56
2022/08/22 03:41:04;;;;;;;12.82;8.55;;;;;;;17.92;70.51;101418.34;5114438;28;20118;-56
2022/08/22 03:43:45;;;;;;;19.15;9.27;;;;;;;17.91;70.51;101425.56;5113916;28;20047;-56
2022/08/22 03:46:35;;;;;;;14.60;9.13;;;;;;;17.91;70.40;101414.81;5113295;28;20024;-56
2022/08/22 03:49:18;;;;;;;13.50;9.75;;;;;;;17.82;70.89;101414.72;5113995;28;20023;-56
2022/08/22 03:52:17;;;;;;;15.80;8.98;;;;;;;17.84;70.57;101415.44;5114476;28;20023;-56
2022/08/22 03:54:58;;;;;;;12.15;9.52;;;;;;;17.77;70.99;101412.41;5114119;28;20108;-56
2022/08/22 03:57:23;;;;;;;15.55;10.15;;;;;;;17.72;70.89;101411.94;5113767;27;20051;-56
2022/08/22 04:00:18;;;;;;;19.13;8.95;;;;;;;17.58;71.57;101410.38;5113599;28;20038;-56
2022/08/22 04:02:58;;;;;;;19.63;9.35;;;;;;;17.57;71.51;101419.44;5112597;28;20024;-56
2022/08/22 04:05:48;;;;;;;20.38;9.82;;;;;;;17.63;71.14;101415.41;5112610;28;20108;-56
2022/08/22 04:08:41;;;;;;;14.60;9.30;;;;;;;17.53;71.32;101412.63;5113994;28;20028;-56
2022/08/22 04:11:08;;;;;;;17.73;9.88;;;;;;;17.52;71.60;101415.44;5112793;28;20110;-56
2022/08/22 04:13:39;;;;;;;17.27;10.02;;;;;;;17.48;71.63;101417.53;5113259;28;20019;-56
2022/08/22 04:16:08;;;;;;;16.15;9.90;;;;;;;17.43;71.95;101415.22;5113874;28;20038;-56
2022/08/22 04:18:46;;;;;;;17.98;10.02;;;;;;;17.41;72.21;101424.38;5112049;28;20028;-56
2022/08/22 04:21:17;;;;;;;17.27;10.50;;;;;;;17.37;72.43;101425.63;5112516;28;20016;-56
2022/08/22 04:24:15;;;;;;;17.02;9.77;;;;;;;17.44;71.80;101422.31;5112624;28;20061;-56
2022/08/22 04:26:56;;;;;;;14.43;9.45;;;;;;;17.36;72.48;101424.78;5112407;28;20028;-56
2022/08/22 04:29:41;;;;;;;12.95;9.63;;;;;;;17.41;72.28;101435.13;5113013;28;20031;-56
2022/08/22 04:32:16;;;;;;;14.05;10.18;;;;;;;17.41;72.75;101437.81;5113125;28;20072;-56
2022/08/22 04:34:49;;;;;;;14.95;9.57;;;;;;;17.44;73.00;101440.25;5113518;28;20059;-55
2022/08/22 04:37:29;;;;;;;13.52;9.82;;;;;;;17.43;72.95;101433.19;5113562;28;20027;-56
2022/08/22 04:40:01;;;;;;;16.85;10.13;;;;;;;17.42;73.31;101436.88;5113261;28;20045;-56
2022/08/22 04:42:42;;;;;;;15.20;10.02;;;;;;;17.46;72.75;101430.25;5111821;28;20027;-56
2022/08/22 04:45:52;;;;;;;16.08;9.57;;;;;;;17.46;72.74;101430.25;5113108;28;20106;-56
2022/08/22 04:48:32;;;;;;;15.30;9.85;;;;;;;17.42;73.38;101429.66;5107702;28;20039;-56
2022/08/22 04:51:12;;;;;;;14.43;10.23;;;;;;;17.34;73.83;101426.72;5113182;28;20386;-56
2022/08/22 04:54:22;;;;;;;16.25;10.68;;;;;;;17.44;73.35;101438.44;5112829;28;20019;-56
2022/08/22 04:56:59;;;;;;;16.75;10.23;;;;;;;17.47;73.39;101443.56;5078301;28;20059;-56
2022/08/22 04:59:27;;;;;;;19.17;10.13;;;;;;;17.45;73.78;101436.59;5112193;28;20072;-56
2022/08/22 05:02:05;;;;;;;13.27;10.20;;;;;;;17.45;73.91;101447.38;5112612;28;20030;-56
2022/08/22 05:04:36;;;;;;;16.05;9.55;;;;;;;17.50;73.93;101447.84;5112799;28;20045;-56
2022/08/22 05:07:14;;;;;;;18.77;10.63;;;;;;;17.48;74.21;101442.59;5112726;28;20030;-56
2022/08/22 05:09:45;;;;;;;15.82;9.95;;;;;;;17.53;74.50;101455.66;5112591;28;20074;-56
2022/08/22 05:12:18;;;;;;;17.77;10.43;;;;;;;17.59;74.43;101448.88;5112816;27;20450;-56
2022/08/22 05:14:51;;;;;;;15.85;10.07;;;;;;;17.49;74.78;101446.97;5112631;28;20020;-56
2022/08/22 05:17:25;;;;;;;21.52;10.90;;;;;;;17.59;74.61;101447.09;5111567;28;20420;-56
2022/08/22 05:19:55;;;;;;;12.30;10.23;;;;;;;17.60;74.65;101456.84;5112503;28;20458;-56
2022/08/22 05:22:29;;;;;;;14.13;9.90;;;;;;;17.57;74.88;101448.19;5110755;28;20110;-56
2022/08/22 05:25:00;;;;;;;15.80;10.52;;;;;;;17.64;74.32;101444.00;5112498;28;20023;-56
2022/08/22 05:27:32;;;;;;;15.60;10.55;;;;;;;17.67;74.54;101452.66;5112356;28;20022;-56
2022/08/22 05:30:10;;;;;;;17.05;10.38;;;;;;;17.69;75.07;101455.22;5111650;28;20035;-56
2022/08/22 05:32:50;;;;;;;15.90;10.60;;;;;;;17.64;75.04;101458.28;5112199;28;20057;-56
2022/08/22 05:35:19;;;;;;;20.27;10.63;;;;;;;17.67;75.11;101460.72;5112437;28;20027;-56
2022/08/22 05:37:53;;;;;;;17.98;9.80;;;;;;;17.69;74.84;101452.53;5112268;28;20028;-56
2022/08/22 05:40:30;;;;;;;14.10;10.32;;;;;;;17.75;74.74;101465.47;5112271;28;20543;-56
2022/08/22 05:42:56;;;;;;;17.20;10.05;;;;;;;17.75;75.50;101462.78;5110626;28;20019;-56
2022/08/22 05:45:25;;;;;;;19.95;10.07;;;;;;;17.78;74.64;101451.78;5112218;28;20359;-56
2022/08/22 05:47:59;;;;;;;17.43;10.80;;;;;;;17.91;74.36;101463.25;5110730;28;20024;-56
2022/08/22 05:50:35;;;;;;;20.13;11.10;;;;;;;17.89;74.62;101464.38;5112163;28;20269;-56
2022/08/22 05:53:36;;;;;;;17.25;10.40;;;;;;;17.98;73.96;101458.19;5110786;28;20047;-56
2022/08/22 05:56:07;;;;;;;20.70;10.73;;;;;;;17.91;75.02;101468.63;5110575;28;20019;-56
2022/08/22 05:58:41;;;;;;;18.88;10.40;;;;;;;18.00;74.59;101458.94;5111451;28;20389;-56
2022/08/22 06:01:45;;;;;;;20.83;11.07;;;;;;;18.04;73.92;101443.38;5109633;28;20501;-56
2022/08/22 06:04:35;;;;;;;18.38;11.07;;;;;;;18.00;74.17;101452.66;5109847;28;20046;-56
2022/08/22 06:07:11;;;;;;;18.45;11.52;;;;;;;18.08;73.74;101445.66;5109811;28;20058;-56
2022/08/22 06:09:43;;;;;;;20.58;11.20;;;;;;;18.13;73.80;101456.03;5092585;28;20027;-56
2022/08/22 06:12:25;;;;;;;26.70;10.93;;;;;;;18.17;74.12;101454.78;5109637;28;20489;-56
2022/08/22 06:15:21;;;;;;;19.98;12.18;;;;;;;18.18;74.23;101456.50;5109112;28;20439;-57
2022/08/22 06:17:59;;;;;;;18.67;10.68;;;;;;;18.25;74.56;101451.44;5108154;28;20082;-56
2022/08/22 06:20:33;;;;;;;21.27;11.25;;;;;;;18.23;74.72;101450.72;5109658;28;20031;-56
2022/08/22 06:23:01;;;;;;;24.00;11.60;;;;;;;18.26;73.84;101456.69;5109571;28;20076;-56
2022/08/22 06:25:32;;;;;;;21.55;11.05;;;;;;;18.33;73.60;101457.88;5109664;28;20088;-56
2022/08/22 06:28:03;;;;;;;27.30;11.45;;;;;;;18.41;73.25;101459.03;5108842;28;20035;-56
2022/08/22 06:30:29;;;;;;;18.00;11.50;;;;;;;18.45;73.15;101458.66;5109535;28;20028;-56
2022/08/22 06:33:01;;;;;;;18.08;10.73;;;;;;;18.47;73.21;101470.16;5110951;28;20039;-56
2022/08/22 06:35:26;;;;;;;21.35;11.23;;;;;;;18.42;74.67;101464.31;5114375;28;20106;-56
2022/08/22 06:37:58;;;;;;;20.30;11.82;;;;;;;18.49;73.16;101464.63;5115654;28;20596;-56
2022/08/22 06:40:27;;;;;;;18.48;11.15;;;;;;;18.51;73.04;101465.34;5115641;28;20051;-56
2022/08/22 06:42:53;;;;;;;20.15;10.85;;;;;;;18.47;72.89;101461.19;5114944;28;20514;-56
2022/08/22 06:45:32;;;;;;;17.95;10.45;;;;;;;18.54;74.26;101471.31;5114354;28;20068;-56
2022/08/22 06:48:15;;;;;;;20.10;11.82;;;;;;;18.58;72.80;101474.59;5115482;28;20055;-57
2022/08/22 06:50:43;;;;;;;17.17;11.48;;;;;;;18.55;73.30;101469.47;5114139;28;20117;-56
2022/08/22 06:53:17;;;;;;;23.23;11.63;;;;;;;18.66;73.03;101472.09;5115574;28;20062;-57
2022/08/22 06:55:50;;;;;;;24.70;11.93;;;;;;;18.69;72.78;101479.91;5114235;28;20039;-56
2022/08/22 06:58:37;;;;;;;18.38;11.27;;;;;;;18.73;72.59;101488.56;5114461;28;20035;-57
2022/08/22 07:01:23;;;;;;;15.82;10.80;;;;;;;18.80;72.55;101495.19;5115158;28;20385;-56
2022/08/22 07:03:52;;;;;;;20.05;11.30;;;;;;;18.79;72.64;101491.63;5115009;28;20035;-57
2022/08/22 07:06:26;;;;;;;24.38;11.50;;;;;;;18.78;72.25;101489.91;5114899;28;20051;-56
2022/08/22 07:08:55;;;;;;;19.65;11.40;;;;;;;18.77;72.93;101493.59;5114739;28;20058;-57
2022/08/22 07:11:50;;;;;;;22.43;11.50;;;;;;;18.81;72.62;101494.19;5113642;28;20019;-57
2022/08/22 07:14:23;;;;;;;19.05;12.30;;;;;;;18.78;72.88;101492.63;5109277;28;20678;-57
2022/08/22 07:17:03;;;;;;;20.05;11.70;;;;;;;18.82;73.18;101490.50;5114751;27;20027;-57
2022/08/22 07:19:38;;;;;;;26.90;13.05;;;;;;;18.86;72.47;101489.25;5114631;28;20027;-56
2022/08/22 07:22:20;;;;;;;18.85;12.88;;;;;;;18.91;72.51;101492.38;5114791;28;20031;-57
2022/08/22 07:24:51;;;;;;;18.67;13.02;;;;;;;18.94;72.29;101493.94;5114792;28;20023;-57
2022/08/22 07:27:40;;;;;;;18.90;13.07;;;;;;;19.09;71.98;101492.63;5114348;28;20031;-57
2022/08/22 07:30:11;;;;;;;24.48;12.77;;;;;;;19.12;71.77;101492.34;5114351;28;20565;-57
2022/08/22 07:33:02;;;;;;;15.82;11.73;;;;;;;19.18;72.35;101486.41;5113345;28;20466;-57
2022/08/22 07:35:35;;;;;;;22.20;12.52;;;;;;;19.29;71.85;101477.31;5114538;28;20352;-57
2022/08/22 07:38:27;;;;;;;18.58;12.20;;;;;;;19.48;71.52;101484.63;5113080;28;20024;-56
2022/08/22 07:41:10;;;;;;;19.23;13.25;;;;;;;19.66;71.30;101485.69;5113966;28;20034;-56
2022/08/22 07:44:04;;;;;;;17.92;13.30;;;;;;;19.96;70.28;101468.50;5113867;28;20076;-56
2022/08/22 07:46:37;;;;;;;20.15;12.80;;;;;;;20.28;67.96;101475.44;5113181;28;20468;-57
2022/08/22 07:49:23;;;;;;;21.85;12.45;;;;;;;20.57;68.33;101479.97;5113095;28;20030;-57
2022/08/22 07:51:53;;;;;;;20.33;12.82;;;;;;;20.71;66.84;101468.69;5114133;28;20413;-57
2022/08/22 07:54:35;;;;;;;20.58;12.32;;;;;;;20.98;66.38;101473.25;5112808;28;20176;-57
2022/08/22 07:57:33;;;;;;;18.88;12.10;;;;;;;21.29;66.23;101475.66;5112807;28;20521;-57
2022/08/22 08:00:03;;;;;;;19.35;11.32;;;;;;;21.53;64.84;101478.69;5101430;28;20035;-57
2022/08/22 08:02:28;;;;;;;16.10;11.50;;;;;;;21.69;63.40;101477.16;5113932;28;20076;-57
2022/08/22 08:04:59;;;;;;;17.45;10.13;;;;;;;21.98;63.23;101480.47;5113860;28;20023;-57
2022/08/22 08:07:26;;;;;;;12.57;9.55;;;;;;;22.13;62.68;101474.50;5114018;28;20034;-57
2022/08/22 08:09:58;;;;;;;14.63;8.38;;;;;;;22.11;61.53;101466.50;5112322;28;20015;-57
2022/08/22 08:12:38;;;;;;;16.48;9.80;;;;;;;22.14;63.00;101470.78;5113424;28;20019;-57
2022/08/22 08:15:08;;;;;;;17.95;7.82;;;;;;;22.08;61.60;101469.53;5112036;28;20020;-57
2022/08/22 08:17:37;;;;;;;15.13;7.65;;;;;;;22.09;61.16;101470.38;5113629;27;20031;-56
2022/08/22 08:20:08;;;;;;;16.73;7.70;;;;;;;22.11;61.59;101462.97;5113657;28;20024;-56
2022/08/22 08:22:36;;;;;;;13.10;7.57;;;;;;;22.28;61.87;101453.97;5112190;28;20676;-56
2022/08/22 08:25:03;;;;;;;14.05;6.35;;;;;;;22.52;60.70;101447.88;5113358;28;20016;-57
2022/08/22 08:30:25;;;;;;;14.95;7.20;;;;;;;22.94;58.81;101448.91;5113831;28;20046;-57
2022/08/22 08:32:54;;;;;;;15.15;5.85;;;;;;;22.90;56.44;101441.09;5113286;28;20035;-57
2022/08/22 08:35:23;;;;;;;;;;;;;;;23.10;58.46;101451.75;5113885;28;20049;-57
2022/08/22 08:37:59;;;;;;;14.65;6.15;;;;;;;22.92;56.87;101453.69;5112898;28;19984;-57
2022/08/22 08:40:31;;;;;;;12.35;5.60;;;;;;;22.98;56.92;101453.91;5113322;28;20084;-57
2022/08/22 08:43:30;;;;;;;15.07;6.85;;;;;;;22.84;57.11;101455.31;5112685;27;20025;-57
2022/08/22 08:46:13;;;;;;;15.20;5.40;;;;;;;22.74;56.10;101453.78;5113321;28;20089;-56
2022/08/22 08:49:11;;;;;;;17.98;5.68;;;;;;;22.68;56.61;101457.97;5112857;28;20031;-56
2022/08/22 08:52:02;;;;;;;14.02;5.43;;;;;;;22.62;56.76;101455.91;5112999;28;20023;-57
2022/08/22 08:54:53;;;;;;;16.48;5.88;;;;;;;22.52;56.23;101450.56;5112621;28;20020;-57
2022/08/22 08:57:34;;;;;;;15.85;6.07;;;;;;;22.40;57.01;101455.41;5110828;28;20395;-57
2022/08/22 09:00:13;;;;;;;10.77;5.07;;;;;;;22.36;56.55;101448.63;5112498;28;20069;-56
2022/08/22 09:03:07;;;;;;;10.77;5.50;;;;;;;22.21;56.89;101448.34;5112785;28;20478;-56
2022/08/22 09:05:44;;;;;;;13.23;6.28;;;;;;;22.08;57.45;101455.16;5112799;28;20027;-57
2022/08/22 09:08:27;;;;;;;14.32;6.22;;;;;;;22.11;58.98;101447.53;5111242;28;20470;-57
2022/08/22 09:11:11;;;;;;;10.95;5.32;;;;;;;22.06;57.73;101446.31;5111430;28;20023;-57
2022/08/22 09:14:15;;;;;;;13.52;6.60;;;;;;;22.12;57.54;101449.25;5112049;28;20157;-56
2022/08/22 09:16:52;;;;;;;14.68;6.20;;;;;;;22.13;57.09;101450.13;5099158;28;20070;-57
2022/08/22 09:19:28;;;;;;;12.60;6.95;;;;;;;22.11;57.72;101444.84;5112448;28;20031;-57
2022/08/22 09:22:26;;;;;;;15.70;6.35;;;;;;;22.23;58.47;101442.75;5111916;28;20028;-57
2022/08/22 09:24:57;;;;;;;15.20;7.20;;;;;;;22.19;57.51;101436.81;5112406;28;20055;-57
2022/08/22 09:27:32;;;;;;;13.05;6.30;;;;;;;22.25;57.21;101438.03;5112552;28;20055;-57
2022/08/22 09:30:06;;;;;;;13.88;5.88;;;;;;;22.18;56.95;101432.41;5110367;28;20039;-56
2022/08/22 09:32:41;;;;;;;10.00;5.80;;;;;;;;;;5112029;28;20484;-57
2022/08/22 09:35:06;;;;;;;12.27;5.80;;;;;;;22.34;56.61;101436.22;5112479;28;20355;-57
2022/08/22 09:38:09;;;;;;;14.50;5.47;;;;;;;22.42;56.24;101439.84;5112023;27;20023;-57
2022/08/22 09:40:43;;;;;;;14.77;5.53;;;;;;;22.50;56.28;101440.91;5112002;28;20252;-57
2022/08/22 09:43:18;;;;;;;9.77;5.75;;;;;;;22.52;55.52;101439.72;5111722;28;20024;-56
2022/08/22 09:46:06;;;;;;;12.63;5.85;;;;;;;22.63;55.85;101447.59;5112304;28;20019;-57
2022/08/22 09:48:45;;;;;;;13.55;5.50;;;;;;;22.76;54.69;101443.59;5112065;28;20385;-56
2022/08/22 09:51:25;;;;;;;15.73;5.43;;;;;;;22.84;54.37;101439.06;5112616;28;20024;-56
2022/08/22 09:54:08;;;;;;;13.20;5.35;;;;;;;22.98;54.61;101436.78;5112059;28;20114;-57
2022/08/22 09:57:01;;;;;;;14.63;5.10;;;;;;;23.17;54.15;101441.06;5110683;28;20491;-57
2022/08/22 10:00:12;;;;;;;12.55;3.97;;;;;;;23.42;52.10;101442.00;5078919;28;20539;-56
2022/08/22 10:02:57;;;;;;;14.98;5.28;;;;;;;23.59;52.37;101432.88;5110660;28;20032;-57
2022/08/22 10:05:33;;;;;;;11.27;4.15;;;;;;;23.84;51.26;101435.63;5110472;28;20057;-56
2022/08/22 10:08:15;;;;;;;10.75;3.83;;;;;;;24.06;49.97;101426.81;5111953;28;20027;-56
2022/08/22 10:10:59;;;;;;;9.80;4.07;;;;;;;24.32;49.95;101426.59;5116283;27;20469;-56
2022/08/22 10:13:42;;;;;;;9.85;3.88;;;;;;;24.39;48.50;101419.44;5115644;28;20043;-57
2022/08/22 10:16:22;;;;;;;10.98;3.50;;;;;;;24.63;47.75;101417.72;5116053;28;20132;-57
2022/08/22 10:19:24;;;;;;;13.50;3.83;;;;;;;24.78;47.52;101421.38;5116108;27;20037;-57
2022/08/22 10:22:08;;;;;;;9.18;3.78;;;;;;;24.94;47.01;101425.91;5115936;28;20489;-56
2022/08/22 10:24:56;;;;;;;11.63;3.90;;;;;;;25.27;45.74;101421.19;5114451;28;20023;-57
2022/08/22 10:28:03;;;;;;;8.60;3.95;;;;;;;25.46;46.16;101413.59;5116051;28;20034;-57
2022/08/22 10:31:03;;;;;;;13.68;4.50;;;;;;;25.66;44.49;101422.97;5110576;28;20470;-57
2022/08/22 10:33:57;;;;;;;9.45;3.20;;;;;;;25.75;45.23;101408.25;5115726;28;20427;-57
2022/08/22 10:37:07;;;;;;;15.32;4.30;;;;;;;26.03;44.56;101413.13;5089001;27;20539;-57
2022/08/22 10:39:59;;;;;;;13.60;4.00;;;;;;;26.22;44.57;101406.31;5115422;28;20031;-57
2022/08/22 10:42:36;;;;;;;10.18;4.03;;;;;;;26.25;44.15;101404.06;5114144;28;20031;-57
2022/08/22 10:45:14;;;;;;;11.20;4.00;;;;;;;26.49;42.83;101402.09;5115167;28;20043;-57
2022/08/22 10:47:57;;;;;;;10.50;3.80;;;;;;;26.65;43.39;101398.34;5114054;28;20031;-57
2022/08/22 10:50:25;;;;;;;15.90;3.70;;;;;;;27.00;41.65;101395.88;5113780;28;20023;-57
2022/08/22 10:53:28;;;;;;;11.88;3.88;;;;;;;26.98;41.77;101387.88;5113891;28;20568;-57
2022/08/22 10:55:44;;;;;;;14.00;4.30;;;;;;;27.16;40.50;101393.81;5115361;28;20397;-57
2022/08/22 10:58:14;;;;;;;8.30;3.17;;;;;;;27.42;40.45;101386.94;5113592;28;20084;-58
2022/08/22 11:01:06;;;;;;;12.15;3.90;;;;;;;27.43;40.45;101393.25;5115434;28;20265;-57
2022/08/22 11:03:38;;;;;;;8.15;3.00;;;;;;;27.22;39.73;101392.19;5114793;27;20023;-57
2022/08/22 11:06:12;;;;;;;10.73;3.17;;;;;;;27.20;39.27;101393.41;5115155;28;20386;-57
2022/08/22 11:09:02;;;;;;;10.80;3.33;;;;;;;27.13;40.08;101396.03;5115021;28;20024;-57
2022/08/22 11:11:31;;;;;;;12.23;3.90;;;;;;;27.01;39.63;101392.97;5113716;28;20065;-58
2022/08/22 11:13:59;;;;;;;;;;;;;;;27.33;41.78;101390.84;5113502;28;20034;-57
2022/08/22 11:17:01;;;;;;;8.85;3.80;;;;;;;27.08;41.20;101393.03;5113570;28;19907;-57
2022/08/22 11:19:33;;;;;;;12.25;3.35;;;;;;;27.06;40.70;101390.50;5112740;28;20031;-58
2022/08/22 11:22:12;;;;;;;8.40;3.47;;;;;;;26.94;40.39;101383.84;5114877;28;20420;-57
2022/08/22 11:25:05;;;;;;;9.15;3.30;;;;;;;27.03;40.78;101385.44;5115103;28;20030;-57
2022/08/22 11:27:54;;;;;;;9.80;3.60;;;;;;;26.76;40.75;101380.66;5114774;28;20023;-57
2022/08/22 11:30:32;;;;;;;11.80;3.42;;;;;;;26.76;40.76;101386.97;5114690;28;20474;-57
2022/08/22 11:33:00;;;;;;;10.25;3.53;;;;;;;26.58;39.79;101384.63;5114229;28;20421;-57
2022/08/22 11:35:53;;;;;;;9.95;3.40;;;;;;;26.55;40.87;101385.00;5114448;28;20737;-57
2022/08/22 11:38:48;;;;;;;12.25;3.08;;;;;;;26.57;40.55;101376.66;5114446;28;20076;-57
2022/08/22 11:41:23;;;;;;;9.35;3.25;;;;;;;26.47;40.39;101374.16;5113344;28;20020;-57
2022/08/22 11:43:52;;;;;;;7.68;2.97;;;;;;;26.53;41.91;101373.44;5112717;28;20039;-57
2022/08/22 11:46:28;;;;;;;12.73;3.42;;;;;;;26.57;40.92;101369.31;5114168;27;20028;-57
2022/08/22 11:49:15;;;;;;;10.30;3.28;;;;;;;26.57;40.34;101366.56;5114181;28;20031;-57
2022/08/22 11:51:56;;;;;;;11.25;3.00;;;;;;;26.56;39.63;101364.91;5114225;28;20073;-57
2022/08/22 11:54:43;;;;;;;10.00;3.25;;;;;;;26.32;40.36;101360.53;5114130;28;20102;-57
2022/08/22 11:57:16;;;;;;;9.48;3.25;;;;;;;26.33;40.68;101364.13;5112738;28;20052;-57
2022/08/22 12:00:09;;;;;;;9.95;3.70;;;;;;;26.24;41.44;101366.09;5113762;28;20370;-57
2022/08/22 12:02:46;;;;;;;9.07;3.30;;;;;;;26.07;40.51;101364.56;5112328;28;20364;-57
2022/08/22 12:05:23;;;;;;;11.55;3.35;;;;;;;25.93;40.54;101363.50;5114171;28;20031;-57
2022/08/22 12:08:32;;;;;;;10.35;2.70;;;;;;;26.06;42.54;101358.28;5113706;28;20035;-57
2022/08/22 12:11:28;;;;;;;8.80;3.20;;;;;;;26.05;40.74;101368.31;5088727;28;20361;-57
2022/08/22 12:14:35;;;;;;;11.73;3.08;;;;;;;25.96;40.52;101363.13;5113266;28;20461;-57
2022/08/22 12:17:06;;;;;;;8.60;3.17;;;;;;;25.89;40.97;101360.31;5113401;27;20035;-57
2022/08/22 12:19:55;;;;;;;12.20;3.47;;;;;;;25.80;39.74;101370.41;5113687;28;20027;-57
2022/08/22 12:23:05;;;;;;;8.70;2.90;;;;;;;25.87;40.84;101365.09;5113699;28;20103;-57